Time;durP1;ratioP1;P1;durP2;ratioP2;P2;SDS_P1;SDS_P2;PMS_P1;PMS_P2;Temp;Humidity;BMP_temperature;BMP_pressure;BME280_temperature;BME280_humidity;BME280_pressure;Samples;Min_cycle;Max_cycle;Signal;HPM_P1;HPM_P2
2021/12/05 00:24:23;;;;;;;5.18;0.93;;;6.20;88.50;;;;;;5074976;28;20109;-65
2021/12/05 00:26:57;;;;;;;6.40;1.08;;;6.10;88.70;;;;;;5075545;28;20111;-65
2021/12/05 00:29:43;;;;;;;3.42;0.90;;;6.00;88.80;;;;;;5088946;28;20060;-65
2021/12/05 01:02:35;;;;;;;6.95;1.13;;;6.10;90.00;;;;;;5055321;28;20048;-65
2021/12/05 01:12:51;;;;;;;6.22;1.10;;;6.20;87.60;;;;;;5060388;28;20028;-65
2021/12/05 01:15:25;;;;;;;5.72;0.90;;;6.30;87.50;;;;;;5055474;28;20024;-64
2021/12/05 01:18:09;;;;;;;4.82;1.17;;;6.20;87.20;;;;;;5052010;28;20122;-65
2021/12/05 01:20:39;;;;;;;5.38;0.90;;;6.20;87.20;;;;;;5051470;28;20061;-65
2021/12/05 01:23:17;;;;;;;5.07;1.00;;;6.30;87.10;;;;;;5056287;28;20539;-65
2021/12/05 01:26:00;;;;;;;3.72;0.73;;;6.30;87.00;;;;;;5056220;28;20128;-65
2021/12/05 01:34:11;;;;;;;6.07;1.08;;;6.30;87.60;;;;;;5027064;28;20038;-65
2021/12/05 01:39:39;;;;;;;3.72;0.70;;;6.30;87.60;;;;;;5050015;28;20052;-65
2021/12/05 02:35:42;;;;;;;4.93;0.60;;;6.30;87.30;;;;;;5087444;28;20039;-64
2021/12/05 02:43:34;;;;;;;3.50;0.75;;;6.20;87.50;;;;;;5085077;28;20043;-65
2021/12/05 02:46:02;;;;;;;4.32;0.88;;;6.20;87.50;;;;;;5080889;28;20032;-65
2021/12/05 02:48:31;;;;;;;5.57;1.13;;;6.20;87.60;;;;;;5075763;28;20059;-65
2021/12/05 02:51:00;;;;;;;7.05;0.90;;;6.20;87.70;;;;;;5087154;28;20028;-65
2021/12/05 02:53:41;;;;;;;6.28;1.00;;;6.20;87.90;;;;;;5087647;28;20028;-65
2021/12/05 02:56:08;;;;;;;;;;;6.20;88.10;;;;;;5089402;28;20162;-65
2021/12/05 03:01:19;;;;;;;5.07;0.82;;;6.20;88.20;;;;;;5081051;28;20036;-65
2021/12/05 03:03:47;;;;;;;9.88;1.00;;;6.20;89.20;;;;;;5086475;28;20027;-65
2021/12/05 03:06:21;;;;;;;6.53;1.02;;;6.20;88.40;;;;;;5087011;28;20519;-65
2021/12/05 03:08:53;;;;;;;4.53;0.90;;;6.20;88.30;;;;;;5087047;28;20035;-65
2021/12/05 03:11:19;;;;;;;8.90;1.00;;;6.20;88.30;;;;;;5085134;28;20040;-65
2021/12/05 03:13:45;;;;;;;6.40;0.90;;;6.10;88.20;;;;;;5087369;28;20081;-65
2021/12/05 03:16:14;;;;;;;5.57;0.80;;;6.10;88.30;;;;;;5086629;28;20028;-64
2021/12/05 03:18:41;;;;;;;6.60;0.73;;;6.00;88.30;;;;;;5083047;28;20044;-65
2021/12/05 03:21:08;;;;;;;4.85;0.80;;;6.00;88.30;;;;;;5084923;28;20025;-64
2021/12/05 03:23:35;;;;;;;5.60;0.80;;;6.00;88.40;;;;;;5086653;28;20028;-65
2021/12/05 03:26:03;;;;;;;7.55;1.10;;;5.90;88.50;;;;;;5075187;28;20025;-65
2021/12/05 03:28:29;;;;;;;7.60;1.30;;;5.90;88.60;;;;;;5081525;28;20032;-65
2021/12/05 03:30:55;;;;;;;7.47;1.33;;;5.80;89.50;;;;;;5083538;28;20066;-65
2021/12/05 03:33:21;;;;;;;7.07;0.90;;;5.80;88.60;;;;;;5083508;28;20396;-64
2021/12/05 03:35:46;;;;;;;5.65;1.02;;;5.70;88.70;;;;;;5088277;28;20051;-64
2021/12/05 03:38:12;;;;;;;8.40;1.00;;;5.60;88.80;;;;;;5086512;28;20430;-65
2021/12/05 03:40:38;;;;;;;8.13;1.15;;;5.50;88.90;;;;;;5088353;28;20455;-65
2021/12/05 03:43:07;;;;;;;6.50;0.95;;;5.40;89.10;;;;;;5083490;28;20028;-64
2021/12/05 03:45:37;;;;;;;8.48;1.10;;;5.30;89.40;;;;;;5083427;28;20036;-65
2021/12/05 03:48:05;;;;;;;8.23;1.42;;;5.20;89.70;;;;;;5086064;28;20028;-65
2021/12/05 03:50:31;;;;;;;5.97;1.00;;;5.20;89.90;;;;;;5086421;28;20024;-64
2021/12/05 03:52:57;;;;;;;4.80;1.02;;;5.10;89.90;;;;;;5084093;28;20494;-65
2021/12/05 03:55:23;;;;;;;5.53;0.90;;;5.00;90.00;;;;;;5083646;28;20024;-65
2021/12/05 03:57:49;;;;;;;7.07;0.98;;;4.90;90.00;;;;;;5086211;28;20111;-65
2021/12/05 04:00:30;;;;;;;5.90;1.08;;;4.90;90.10;;;;;;5088594;28;20487;-64
2021/12/05 04:02:59;;;;;;;5.68;0.98;;;4.80;90.20;;;;;;5075876;28;20036;-65
2021/12/05 04:05:27;;;;;;;5.97;1.20;;;4.80;90.30;;;;;;5105629;28;20426;-65
2021/12/05 04:07:53;;;;;;;8.77;0.93;;;4.70;90.30;;;;;;5088800;28;20121;-64
2021/12/05 04:10:20;;;;;;;8.18;1.27;;;4.70;90.40;;;;;;5086947;28;20678;-65
2021/12/05 04:12:47;;;;;;;5.53;0.95;;;4.60;90.50;;;;;;5086938;28;20101;-64
2021/12/05 04:15:14;;;;;;;6.55;1.20;;;4.60;90.60;;;;;;5090324;28;20024;-64
2021/12/05 04:17:41;;;;;;;8.55;1.30;;;4.60;90.80;;;;;;5074996;28;20033;-65
2021/12/05 04:20:09;;;;;;;9.07;1.10;;;4.60;90.90;;;;;;5086497;28;20024;-64
2021/12/05 04:22:35;;;;;;;8.05;1.42;;;4.50;91.00;;;;;;5086908;28;20042;-64
2021/12/05 04:25:04;;;;;;;5.30;1.10;;;4.50;91.00;;;;;;5086466;28;20032;-64
2021/12/05 04:27:30;;;;;;;7.03;0.90;;;4.50;91.10;;;;;;5086635;28;20025;-64
2021/12/05 04:29:56;;;;;;;7.60;1.20;;;4.50;91.10;;;;;;5090862;28;20104;-64
2021/12/05 04:32:22;;;;;;;7.13;0.90;;;4.50;91.20;;;;;;5089295;28;20074;-64
2021/12/05 04:34:50;;;;;;;7.95;0.90;;;4.50;91.30;;;;;;5087600;28;20115;-64
2021/12/05 04:37:15;;;;;;;8.77;0.82;;;4.50;91.30;;;;;;5086365;28;20056;-64
2021/12/05 04:39:41;;;;;;;5.68;0.90;;;4.50;91.30;;;;;;5086448;28;20159;-65
2021/12/05 04:42:07;;;;;;;2.88;0.70;;;4.50;91.30;;;;;;5088902;28;20027;-65
2021/12/05 04:44:33;;;;;;;4.50;0.77;;;4.50;91.30;;;;;;5089128;28;20052;-64
2021/12/05 04:47:00;;;;;;;7.05;0.80;;;4.50;91.30;;;;;;5088859;28;20032;-64
2021/12/05 04:49:27;;;;;;;6.45;0.90;;;4.50;91.30;;;;;;5086289;28;20024;-64
2021/12/05 04:51:53;;;;;;;5.82;0.70;;;4.50;91.40;;;;;;5086098;28;20016;-64
2021/12/05 04:54:20;;;;;;;7.00;0.80;;;4.50;91.40;;;;;;5086539;28;20094;-64
2021/12/05 04:56:48;;;;;;;4.07;0.80;;;4.40;91.30;;;;;;5087229;28;20020;-64
2021/12/05 04:59:16;;;;;;;8.10;1.00;;;4.40;91.30;;;;;;5088839;28;20479;-64
2021/12/05 05:01:45;;;;;;;3.90;0.90;;;4.40;91.30;;;;;;5078254;28;20071;-65
2021/12/05 05:04:26;;;;;;;5.32;0.82;;;4.40;91.40;;;;;;5077799;28;20055;-64
2021/12/05 05:06:52;;;;;;;;;;;4.40;91.40;;;;;;5078787;28;20059;-64
2021/12/05 05:09:18;;;;;;;6.55;0.68;;;4.30;91.40;;;;;;5086001;28;20011;-64
2021/12/05 05:11:44;;;;;;;6.55;1.00;;;4.30;91.50;;;;;;5089625;28;20095;-64
2021/12/05 05:14:12;;;;;;;4.40;0.80;;;4.30;91.50;;;;;;5077233;28;20104;-65
2021/12/05 05:16:37;;;;;;;6.60;1.02;;;4.30;91.60;;;;;;5077573;28;20024;-64
2021/12/05 05:19:03;;;;;;;9.18;1.10;;;4.30;91.70;;;;;;5077416;28;20028;-65
2021/12/05 05:21:48;;;;;;;6.00;1.38;;;4.30;91.70;;;;;;5075165;28;20028;-64
2021/12/05 05:50:35;;;;;;;7.25;1.27;;;4.40;92.00;;;;;;5087834;28;20613;-64
2021/12/05 05:53:00;;;;;;;9.00;1.10;;;4.40;92.00;;;;;;5076498;28;20099;-65
2021/12/05 05:55:26;;;;;;;12.05;1.77;;;4.50;92.10;;;;;;5075458;28;20032;-65
2021/12/05 06:00:35;;;;;;;8.07;1.25;;;4.50;91.90;;;;;;5088667;28;20524;-65
2021/12/05 06:03:22;;;;;;;8.20;1.30;;;4.50;92.30;;;;;;5073362;28;20028;-65
2021/12/05 06:05:57;;;;;;;9.55;1.13;;;4.50;91.90;;;;;;5088512;28;20109;-64
2021/12/05 06:08:26;;;;;;;8.15;1.42;;;4.60;92.00;;;;;;5086729;28;20020;-65
2021/12/05 06:10:57;;;;;;;9.07;1.40;;;4.60;92.00;;;;;;5081108;28;20028;-67
2021/12/05 06:13:24;;;;;;;8.65;1.20;;;4.60;92.00;;;;;;5079249;28;20030;-67
2021/12/05 06:15:51;;;;;;;8.73;1.13;;;4.60;92.40;;;;;;5076758;28;20031;-67
2021/12/05 06:18:17;;;;;;;11.90;1.15;;;4.70;92.10;;;;;;5085499;28;20446;-67
2021/12/05 06:20:43;;;;;;;13.35;1.30;;;4.70;92.20;;;;;;5088370;28;20170;-67
2021/12/05 06:23:11;;;;;;;6.82;1.27;;;4.80;92.10;;;;;;5087515;28;20109;-67
2021/12/05 06:25:41;;;;;;;6.45;1.27;;;4.90;92.00;;;;;;5077413;28;20577;-67
2021/12/05 06:28:13;;;;;;;7.43;1.20;;;5.00;91.80;;;;;;5076016;28;20158;-67
2021/12/05 06:47:28;;;;;;;14.05;1.90;;;4.70;91.60;;;;;;5086973;28;20050;-67
2021/12/05 06:49:55;;;;;;;9.50;1.40;;;4.70;91.70;;;;;;5084957;28;20048;-67
2021/12/05 06:52:22;;;;;;;8.02;1.25;;;4.60;91.70;;;;;;5079144;28;20110;-67
2021/12/05 06:54:48;;;;;;;9.48;1.25;;;4.60;91.80;;;;;;5074334;28;20032;-67
2021/12/05 06:57:14;;;;;;;8.95;1.30;;;4.60;91.80;;;;;;5087310;28;20054;-67
2021/12/05 06:59:43;;;;;;;13.02;1.48;;;4.60;91.90;;;;;;5072650;28;20036;-67
2021/12/05 07:02:09;;;;;;;9.52;1.75;;;4.50;91.90;;;;;;5075496;28;20487;-67
2021/12/05 07:07:23;;;;;;;10.10;1.48;;;4.50;92.00;;;;;;5075807;28;20070;-67
2021/12/05 07:09:50;;;;;;;9.02;1.63;;;4.60;92.00;;;;;;5073930;28;20024;-67
2021/12/05 07:14:57;;;;;;;12.02;1.58;;;4.50;91.90;;;;;;5072017;28;20056;-67
2021/12/05 07:20:22;;;;;;;12.27;1.65;;;4.50;92.00;;;;;;5075972;28;20031;-67
2021/12/05 07:23:07;;;;;;;10.48;1.40;;;4.50;92.20;;;;;;5076105;28;20036;-67
2021/12/05 07:25:46;;;;;;;11.60;2.13;;;4.50;92.30;;;;;;5075206;28;20404;-67
2021/12/05 07:42:03;;;;;;;8.68;1.27;;;4.90;92.00;;;;;;5075669;28;20039;-67
2021/12/05 07:44:29;;;;;;;7.63;1.48;;;5.00;92.10;;;;;;5083558;28;20027;-67
2021/12/05 07:46:56;;;;;;;10.23;1.58;;;5.00;91.90;;;;;;5089073;28;20407;-67
2021/12/05 07:49:21;;;;;;;7.30;1.40;;;5.10;91.90;;;;;;5082348;28;20035;-67
2021/12/05 07:51:49;;;;;;;10.43;1.25;;;5.10;92.00;;;;;;5079239;28;20024;-67
2021/12/05 07:54:29;;;;;;;10.40;2.00;;;5.10;91.80;;;;;;5076710;28;20104;-67
2021/12/05 07:57:20;;;;;;;11.68;1.92;;;5.10;91.70;;;;;;5075605;28;20405;-67
2021/12/05 08:16:12;;;;;;;10.70;1.63;;;5.60;90.60;;;;;;5078639;28;20031;-67
2021/12/05 08:18:38;;;;;;;10.85;1.92;;;5.90;90.40;;;;;;5078831;28;20122;-67
2021/12/05 08:21:06;;;;;;;11.85;2.08;;;6.40;89.60;;;;;;5076095;28;20439;-67
2021/12/05 08:23:33;;;;;;;14.88;4.07;;;6.70;88.50;;;;;;5076107;28;20020;-67
2021/12/05 08:26:13;;;;;;;10.93;2.35;;;7.20;87.20;;;;;;5079037;28;20043;-67
2021/12/05 08:31:33;;;;;;;8.95;1.90;;;8.70;82.70;;;;;;5078464;28;20127;-67
2021/12/05 09:27:50;;;;;;;15.98;2.13;;;11.00;67.00;;;;;;5073679;28;20032;-65
2021/12/05 09:30:47;;;;;;;11.40;2.17;;;10.80;67.90;;;;;;5075304;28;20132;-65
2021/12/05 10:13:39;;;;;;;17.95;9.10;;;12.40;69.20;;;;;;5085647;28;20048;-65
2021/12/05 10:38:07;;;;;;;30.38;18.77;;;17.70;46.10;;;;;;5086943;28;20055;-65
2021/12/05 10:40:42;;;;;;;36.08;23.20;;;18.70;46.20;;;;;;5077939;28;20036;-65
2021/12/05 10:43:20;;;;;;;25.00;15.30;;;19.90;43.60;;;;;;5076254;28;20078;-65
2021/12/05 10:45:55;;;;;;;20.67;8.13;;;19.20;41.60;;;;;;5076144;28;20063;-65
2021/12/05 10:48:36;;;;;;;13.05;4.95;;;17.50;44.40;;;;;;5075509;28;20390;-65
2021/12/05 10:51:13;;;;;;;15.65;6.35;;;16.10;47.90;;;;;;5072962;28;20035;-65
2021/12/05 10:53:49;;;;;;;14.80;5.78;;;14.70;51.40;;;;;;5073254;28;20028;-65
2021/12/05 10:56:24;;;;;;;16.95;6.22;;;13.70;54.50;;;;;;5077668;28;20017;-65
2021/12/05 10:59:06;;;;;;;19.75;7.57;;;13.90;55.80;;;;;;5076702;28;20509;-65
2021/12/05 11:01:35;;;;;;;63.20;38.33;;;13.60;54.90;;;;;;5075314;28;20024;-65
2021/12/05 11:04:06;;;;;;;35.53;20.65;;;17.20;50.00;;;;;;5075865;28;20020;-65
2021/12/05 11:06:52;;;;;;;23.73;15.63;;;19.10;44.40;;;;;;5075031;28;20031;-66
2021/12/05 11:09:25;;;;;;;24.38;17.77;;;20.50;41.70;;;;;;5075035;28;20557;-66
2021/12/05 11:12:02;;;;;;;22.00;15.27;;;22.20;38.30;;;;;;5071708;28;20024;-66
2021/12/05 11:14:32;;;;;;;30.13;21.80;;;23.30;35.50;;;;;;5087141;28;20016;-66
2021/12/05 11:17:02;;;;;;;33.45;26.27;;;24.10;34.50;;;;;;5085874;28;20024;-66
2021/12/05 11:19:34;;;;;;;27.80;20.00;;;24.90;32.40;;;;;;5078380;28;20037;-66
2021/12/05 11:22:31;;;;;;;19.42;12.90;;;25.50;31.80;;;;;;5075507;28;20335;-66
2021/12/05 11:25:06;;;;;;;8.60;2.85;;;26.20;30.30;;;;;;5080108;28;20032;-66
2021/12/05 11:27:34;;;;;;;12.70;4.20;;;22.30;32.60;;;;;;5085960;28;20085;-66
2021/12/05 11:30:13;;;;;;;12.23;5.35;;;19.70;37.00;;;;;;5087032;28;20098;-65
2021/12/05 11:32:44;;;;;;;13.43;5.43;;;18.00;41.40;;;;;;5086834;28;20024;-65
2021/12/05 11:35:28;;;;;;;13.63;4.15;;;17.20;44.00;;;;;;5088323;28;20059;-65
2021/12/05 11:37:56;;;;;;;15.73;6.60;;;16.70;45.00;;;;;;5087990;28;20099;-65
2021/12/05 11:40:24;;;;;;;9.43;2.90;;;16.00;47.50;;;;;;5086585;28;20032;-65
2021/12/05 11:43:03;;;;;;;10.70;3.42;;;16.70;48.30;;;;;;5086907;28;20135;-65
2021/12/05 11:45:47;;;;;;;10.85;3.03;;;20.40;43.20;;;;;;5086309;28;20067;-66
2021/12/05 11:48:26;;;;;;;8.52;2.33;;;19.70;40.50;;;;;;5086642;28;20464;-66
2021/12/05 11:50:52;;;;;;;10.55;2.92;;;17.80;43.40;;;;;;5086643;28;20135;-65
2021/12/05 11:53:42;;;;;;;16.52;6.95;;;16.10;53.40;;;;;;5088081;28;20499;-65
2021/12/05 11:56:09;;;;;;;12.82;5.63;;;14.40;56.60;;;;;;5075379;28;20032;-65
2021/12/05 11:58:35;;;;;;;16.33;6.88;;;13.30;58.50;;;;;;5086594;28;20066;-65
2021/12/05 12:01:09;;;;;;;18.88;9.77;;;12.60;59.80;;;;;;5084477;28;20032;-65
2021/12/05 12:03:37;;;;;;;22.20;12.05;;;12.10;62.10;;;;;;5085436;28;20047;-65
2021/12/05 12:06:04;;;;;;;26.35;11.88;;;11.80;64.00;;;;;;5071944;28;20017;-65
2021/12/05 12:08:30;;;;;;;17.42;6.18;;;11.60;65.80;;;;;;5086020;28;20024;-65
2021/12/05 12:11:00;;;;;;;15.88;8.05;;;11.50;66.50;;;;;;5075323;28;20024;-65
2021/12/05 12:13:30;;;;;;;82.28;40.67;;;11.70;66.20;;;;;;5082468;28;20036;-65
2021/12/05 12:16:00;;;;;;;22.15;9.40;;;11.50;67.00;;;;;;5082092;28;20063;-65
2021/12/05 12:18:33;;;;;;;13.07;4.80;;;11.40;67.80;;;;;;5077105;28;20418;-65
2021/12/05 12:21:14;;;;;;;11.50;3.80;;;11.30;67.50;;;;;;5074897;28;20016;-65
2021/12/05 12:23:41;;;;;;;11.65;2.63;;;11.10;68.60;;;;;;5075882;28;20028;-65
2021/12/05 12:26:08;;;;;;;11.32;1.80;;;11.00;68.80;;;;;;5078302;28;20024;-65
2021/12/05 12:28:35;;;;;;;14.75;3.60;;;11.10;69.00;;;;;;5075972;28;20580;-65
2021/12/05 12:31:08;;;;;;;11.93;5.03;;;11.60;67.70;;;;;;5078548;28;20510;-65
2021/12/05 12:33:46;;;;;;;12.93;4.97;;;11.70;68.30;;;;;;5078450;28;20089;-65
2021/12/05 12:36:12;;;;;;;20.27;11.65;;;12.00;68.10;;;;;;5076411;28;20036;-65
2021/12/05 12:38:41;;;;;;;11.80;3.78;;;12.60;66.80;;;;;;5074408;28;20025;-65
2021/12/05 12:41:10;;;;;;;15.60;7.45;;;13.10;65.60;;;;;;5078085;28;20028;-65
2021/12/05 12:43:51;;;;;;;11.98;3.80;;;13.00;65.90;;;;;;5078109;28;20029;-65
2021/12/05 12:46:19;;;;;;;11.27;3.70;;;12.70;65.40;;;;;;5077812;28;20042;-65
2021/12/05 12:48:45;;;;;;;7.93;2.30;;;12.30;65.20;;;;;;5078273;28;20040;-65
2021/12/05 12:51:33;;;;;;;10.93;4.00;;;12.00;65.50;;;;;;5076181;28;20168;-65
2021/12/05 12:54:03;;;;;;;6.20;1.88;;;11.80;65.30;;;;;;5076221;28;20047;-65
2021/12/05 12:56:29;;;;;;;8.68;2.60;;;11.60;64.90;;;;;;5075838;28;20052;-65
2021/12/05 12:59:00;;;;;;;7.72;2.38;;;11.60;65.50;;;;;;5077668;28;20036;-65
2021/12/05 13:12:34;;;;;;;;;;;11.60;66.40;;;;;;5078097;28;20020;-65
2021/12/05 13:15:16;;;;;;;14.00;4.88;;;12.50;64.70;;;;;;5074303;28;19990;-65
2021/12/05 13:17:42;;;;;;;15.30;2.67;;;12.50;64.60;;;;;;5074055;28;20115;-65
2021/12/05 13:20:10;;;;;;;14.52;3.65;;;12.10;65.00;;;;;;5077028;28;20162;-65
2021/12/05 13:23:14;;;;;;;14.40;4.05;;;11.90;66.10;;;;;;5077704;28;20017;-65
2021/12/05 13:26:04;;;;;;;13.13;6.03;;;14.60;63.30;;;;;;5066939;28;20111;-65
2021/12/05 13:28:30;;;;;;;15.35;8.52;;;17.20;54.40;;;;;;5067430;28;20024;-65
2021/12/05 13:30:59;;;;;;;15.57;7.28;;;19.10;49.40;;;;;;5067552;28;20032;-65
2021/12/05 13:33:28;;;;;;;12.38;3.92;;;17.50;49.00;;;;;;5067838;28;20100;-65
2021/12/05 13:35:58;;;;;;;11.25;4.50;;;16.10;51.50;;;;;;5067954;28;20036;-65
2021/12/05 13:38:34;;;;;;;12.63;6.68;;;15.30;53.30;;;;;;5069549;28;20043;-65
2021/12/05 13:41:10;;;;;;;17.65;7.82;;;17.80;51.00;;;;;;5069290;28;20043;-66
2021/12/05 13:43:36;;;;;;;15.88;7.85;;;19.50;46.00;;;;;;5067442;28;20044;-66
2021/12/05 13:46:21;;;;;;;13.80;5.57;;;20.70;43.30;;;;;;5067416;28;20036;-66
2021/12/05 13:48:47;;;;;;;13.40;4.45;;;21.90;40.10;;;;;;5067437;28;20059;-66
2021/12/05 13:51:22;;;;;;;8.88;3.10;;;22.70;37.40;;;;;;5068041;28;20025;-66
2021/12/05 13:53:51;;;;;;;13.18;4.75;;;23.00;36.50;;;;;;5068094;28;20554;-66
2021/12/05 13:56:26;;;;;;;30.63;22.40;;;23.10;35.70;;;;;;5079011;28;20028;-66
2021/12/05 13:59:02;;;;;;;19.45;12.43;;;23.30;35.30;;;;;;5077179;28;20044;-66
2021/12/05 14:01:34;;;;;;;19.15;10.93;;;23.40;34.90;;;;;;5076874;28;20020;-66
2021/12/05 14:04:10;;;;;;;10.02;4.45;;;23.50;34.40;;;;;;5076781;28;20056;-66
2021/12/05 14:07:01;;;;;;;12.27;6.85;;;23.50;33.70;;;;;;5076652;28;20039;-66
2021/12/05 14:09:40;;;;;;;17.92;8.82;;;22.10;35.80;;;;;;5078401;28;20054;-66
2021/12/05 14:12:24;;;;;;;20.00;9.27;;;19.90;39.60;;;;;;5073740;28;20035;-65
2021/12/05 14:14:51;;;;;;;13.95;5.15;;;18.40;42.90;;;;;;5072335;28;20097;-66
2021/12/05 14:17:26;;;;;;;15.30;7.88;;;17.60;45.30;;;;;;5076134;28;20070;-65
2021/12/05 14:20:14;;;;;;;11.57;5.22;;;16.90;46.60;;;;;;5076858;28;20032;-65
2021/12/05 14:22:43;;;;;;;13.95;6.22;;;16.10;47.80;;;;;;5066434;28;20542;-65
2021/12/05 14:25:16;;;;;;;13.65;5.75;;;15.20;50.10;;;;;;5067005;28;20085;-65
2021/12/05 14:27:48;;;;;;;14.85;5.20;;;14.60;52.00;;;;;;5067303;28;20036;-65
2021/12/05 14:30:19;;;;;;;16.00;5.80;;;16.20;50.10;;;;;;5067586;28;20029;-65
2021/12/05 14:32:46;;;;;;;13.02;3.75;;;16.50;48.70;;;;;;5066888;28;20028;-65
2021/12/05 14:35:22;;;;;;;12.55;3.80;;;15.60;49.30;;;;;;5069282;28;20024;-65
2021/12/05 14:37:51;;;;;;;12.10;3.38;;;14.80;51.70;;;;;;5067059;28;20090;-65
2021/12/05 14:40:30;;;;;;;13.70;3.50;;;14.00;53.30;;;;;;5066477;28;20040;-65
2021/12/05 14:42:59;;;;;;;11.40;3.47;;;13.50;55.50;;;;;;5066337;28;20029;-65
2021/12/05 14:45:27;;;;;;;15.35;3.75;;;14.10;55.90;;;;;;5065705;28;20534;-65
2021/12/05 14:47:56;;;;;;;18.27;3.08;;;13.50;56.60;;;;;;5066840;28;20040;-65
2021/12/05 14:50:30;;;;;;;13.40;4.15;;;13.30;57.30;;;;;;5068226;28;20020;-65
2021/12/05 14:52:58;;;;;;;9.55;2.45;;;13.20;57.70;;;;;;5068655;28;20045;-65
2021/12/05 14:55:27;;;;;;;9.63;2.78;;;13.20;58.80;;;;;;5066356;28;20116;-65
2021/12/05 14:57:59;;;;;;;9.50;2.40;;;13.00;59.50;;;;;;5067053;28;20044;-65
2021/12/05 15:00:29;;;;;;;9.88;3.88;;;12.70;60.50;;;;;;5078124;28;20127;-65
2021/12/05 15:03:17;;;;;;;17.95;11.38;;;12.40;60.80;;;;;;5087296;28;20433;-65
2021/12/05 15:05:52;;;;;;;10.15;2.38;;;13.00;59.60;;;;;;5087528;28;20028;-65
2021/12/05 15:08:21;;;;;;;18.58;9.35;;;13.40;58.10;;;;;;5086860;28;20032;-65
2021/12/05 15:10:52;;;;;;;13.02;5.07;;;13.30;58.40;;;;;;5076102;28;20024;-65
2021/12/05 15:13:19;;;;;;;14.63;6.78;;;12.90;59.60;;;;;;5075448;28;20029;-65
2021/12/05 15:15:45;;;;;;;14.35;6.28;;;12.50;60.60;;;;;;5075257;28;20763;-65
2021/12/05 15:18:18;;;;;;;12.07;5.85;;;12.20;62.00;;;;;;5073792;28;20041;-65
2021/12/05 15:20:46;;;;;;;15.65;7.88;;;12.10;62.30;;;;;;5072381;28;20417;-65
2021/12/05 15:23:12;;;;;;;17.02;5.93;;;11.90;62.70;;;;;;5075195;28;20387;-65
2021/12/05 15:25:40;;;;;;;17.17;7.50;;;11.60;63.70;;;;;;5075548;28;20444;-65
2021/12/05 15:28:08;;;;;;;13.88;4.30;;;11.40;64.60;;;;;;5079006;28;20495;-65
2021/12/05 15:30:43;;;;;;;22.10;8.60;;;11.10;65.40;;;;;;5086311;28;20103;-65
2021/12/05 15:33:15;;;;;;;16.33;5.85;;;11.00;66.20;;;;;;5087295;28;20031;-65
2021/12/05 15:35:43;;;;;;;19.27;8.30;;;10.90;66.80;;;;;;5072175;28;20021;-65
2021/12/05 15:38:12;;;;;;;19.90;8.15;;;10.90;67.10;;;;;;5075111;28;20025;-65
2021/12/05 15:40:43;;;;;;;24.67;11.32;;;10.80;67.80;;;;;;5083352;28;20505;-65
2021/12/05 15:43:13;;;;;;;17.50;7.05;;;10.80;68.30;;;;;;5080699;28;20021;-65
2021/12/05 15:45:41;;;;;;;15.70;7.55;;;10.70;69.00;;;;;;5074295;28;20040;-65
2021/12/05 15:48:07;;;;;;;23.95;12.88;;;10.60;69.40;;;;;;5073101;28;20039;-65
2021/12/05 15:50:37;;;;;;;32.05;19.65;;;10.60;70.20;;;;;;5078683;28;20024;-65
2021/12/05 15:53:07;;;;;;;14.50;6.18;;;10.50;70.60;;;;;;5076427;28;20024;-65
2021/12/05 15:55:42;;;;;;;20.17;9.68;;;10.40;70.90;;;;;;5085877;28;20114;-65
2021/12/05 15:58:09;;;;;;;20.50;9.38;;;10.30;71.60;;;;;;5084777;28;20040;-65
2021/12/05 16:00:42;;;;;;;13.30;5.53;;;10.20;72.30;;;;;;5076633;28;20040;-65
2021/12/05 16:03:15;;;;;;;10.65;3.40;;;10.10;72.80;;;;;;5086286;28;20028;-65
2021/12/05 16:05:43;;;;;;;40.22;17.25;;;10.00;73.50;;;;;;5075610;28;20398;-65
2021/12/05 16:08:14;;;;;;;12.07;3.78;;;9.90;73.90;;;;;;5087475;28;20372;-65
2021/12/05 16:10:57;;;;;;;14.68;5.00;;;9.80;74.50;;;;;;5079435;28;20028;-65
2021/12/05 16:13:34;;;;;;;13.75;4.80;;;9.80;74.80;;;;;;5085826;28;20024;-65
2021/12/05 16:16:12;;;;;;;13.48;4.85;;;9.60;75.10;;;;;;5085289;28;20115;-65
2021/12/05 16:18:43;;;;;;;11.15;3.30;;;9.50;75.80;;;;;;5078936;28;20027;-65
2021/12/05 16:21:28;;;;;;;;;;;9.40;76.30;;;;;;5076982;28;20025;-65
2021/12/05 16:23:55;;;;;;;15.27;4.63;;;9.30;77.00;;;;;;5074385;28;20491;-65
2021/12/05 16:26:27;;;;;;;11.35;3.53;;;9.30;77.30;;;;;;5077837;28;20025;-65
2021/12/05 16:28:57;;;;;;;9.02;2.60;;;9.20;77.80;;;;;;5084982;28;20032;-65
2021/12/05 16:31:27;;;;;;;16.40;6.20;;;9.20;78.10;;;;;;5088591;28;20024;-66
2021/12/05 16:34:11;;;;;;;8.50;2.47;;;9.20;78.50;;;;;;5083779;28;20027;-65
2021/12/05 16:36:47;;;;;;;12.52;2.70;;;9.20;79.20;;;;;;5082352;28;20445;-66
2021/12/05 16:39:20;;;;;;;15.20;6.53;;;9.20;79.20;;;;;;5089269;28;20044;-67
2021/12/05 16:41:53;;;;;;;33.25;18.83;;;9.10;79.30;;;;;;5081685;28;20024;-66
2021/12/05 16:44:25;;;;;;;29.60;14.40;;;9.10;79.70;;;;;;5083016;28;20067;-67
2021/12/05 16:46:56;;;;;;;17.30;10.27;;;9.10;79.20;;;;;;5086808;28;20414;-66
2021/12/05 16:49:28;;;;;;;9.93;6.03;;;9.20;77.90;;;;;;5086755;28;20031;-65
2021/12/05 16:52:08;;;;;;;17.92;7.00;;;9.20;77.90;;;;;;5078335;28;20542;-68
2021/12/05 16:54:53;;;;;;;10.65;3.42;;;9.10;79.00;;;;;;5084398;28;20556;-66
2021/12/05 16:57:24;;;;;;;53.00;24.35;;;9.10;79.10;;;;;;5078046;28;20024;-66
2021/12/05 16:59:53;;;;;;;47.55;32.10;;;9.00;79.30;;;;;;5082959;28;20048;-66
2021/12/05 17:02:33;;;;;;;23.25;13.05;;;9.00;79.50;;;;;;5088939;28;20365;-64
2021/12/05 17:05:15;;;;;;;28.40;15.35;;;9.00;79.70;;;;;;5084412;28;20514;-64
2021/12/05 17:08:07;;;;;;;24.88;11.52;;;8.90;79.60;;;;;;5086404;28;20036;-65
2021/12/05 17:10:59;;;;;;;10.27;3.35;;;8.80;79.70;;;;;;5091523;28;20123;-65
2021/12/05 17:13:52;;;;;;;10.95;3.67;;;8.80;79.80;;;;;;5079167;28;20025;-65
2021/12/05 17:16:26;;;;;;;12.30;2.70;;;8.80;79.60;;;;;;5082348;28;20055;-65
2021/12/05 17:18:58;;;;;;;8.70;3.13;;;8.80;79.80;;;;;;5087872;28;20411;-66
2021/12/05 17:21:33;;;;;;;10.18;3.28;;;8.80;79.50;;;;;;5084410;28;20031;-66
2021/12/05 17:24:15;;;;;;;6.57;2.55;;;8.70;79.50;;;;;;5086296;28;20077;-66
2021/12/05 17:26:58;;;;;;;14.77;3.17;;;8.70;79.50;;;;;;5082616;28;20553;-66
2021/12/05 17:29:32;;;;;;;14.80;3.63;;;8.70;79.90;;;;;;5091527;28;20024;-67
2021/12/05 17:32:13;;;;;;;10.40;3.10;;;8.70;80.20;;;;;;5089171;28;20028;-65
2021/12/05 17:34:44;;;;;;;;;;;8.70;80.50;;;;;;5078553;28;20017;-65
2021/12/05 17:37:15;;;;;;;7.70;1.83;;;8.80;80.00;;;;;;5079495;28;19912;-64
2021/12/05 17:39:44;;;;;;;11.47;1.80;;;8.70;80.60;;;;;;5089265;28;20110;-65
2021/12/05 17:42:17;;;;;;;9.38;1.88;;;8.70;82.30;;;;;;5091283;28;20020;-65
2021/12/05 17:44:44;;;;;;;25.83;15.60;;;8.70;81.30;;;;;;5072549;28;20051;-65
2021/12/05 17:47:12;;;;;;;39.55;21.65;;;8.70;81.50;;;;;;5090322;28;20111;-65
2021/12/05 17:49:41;;;;;;;39.17;19.92;;;8.60;81.40;;;;;;5087009;28;20482;-65
2021/12/05 17:52:11;;;;;;;67.95;31.58;;;8.60;81.10;;;;;;5080548;28;20028;-65
2021/12/05 17:54:49;;;;;;;77.95;38.60;;;8.60;81.40;;;;;;5086919;28;20051;-65
2021/12/05 17:57:23;;;;;;;61.70;35.88;;;8.60;81.70;;;;;;5087426;28;20036;-65
2021/12/05 18:00:00;;;;;;;44.83;26.70;;;8.60;81.80;;;;;;5088746;28;20036;-65
2021/12/05 18:02:44;;;;;;;74.65;39.25;;;8.60;82.00;;;;;;5086488;28;20103;-65
2021/12/05 18:05:36;;;;;;;20.83;10.77;;;8.60;82.10;;;;;;5093768;28;20020;-65
2021/12/05 18:08:07;;;;;;;26.27;15.98;;;8.60;82.20;;;;;;5090834;28;20086;-65
2021/12/05 18:10:38;;;;;;;15.35;7.95;;;8.50;82.10;;;;;;5096024;28;20065;-65
2021/12/05 18:13:10;;;;;;;13.30;6.20;;;8.50;82.50;;;;;;5092790;28;20016;-65
2021/12/05 18:15:40;;;;;;;12.32;5.53;;;8.40;82.70;;;;;;5083064;28;20461;-65
2021/12/05 18:18:06;;;;;;;14.25;6.47;;;8.40;82.70;;;;;;5088441;28;20050;-65
2021/12/05 18:20:34;;;;;;;12.05;4.93;;;8.40;82.80;;;;;;5088958;28;20028;-65
2021/12/05 18:23:04;;;;;;;17.45;7.90;;;8.30;83.00;;;;;;5088169;28;20024;-65
2021/12/05 18:25:33;;;;;;;12.45;4.95;;;8.30;83.40;;;;;;5086800;28;20077;-65
2021/12/05 18:27:58;;;;;;;17.02;6.28;;;8.40;83.60;;;;;;5087292;28;20032;-65
2021/12/05 18:30:26;;;;;;;14.75;5.35;;;8.40;83.60;;;;;;5087005;28;20035;-66
2021/12/05 18:32:56;;;;;;;18.77;6.65;;;8.40;83.50;;;;;;5084712;28;20034;-65
2021/12/05 18:35:25;;;;;;;16.42;6.85;;;8.50;83.40;;;;;;5086628;28;20060;-66
2021/12/05 18:37:54;;;;;;;22.83;7.93;;;8.50;83.40;;;;;;5086567;28;20089;-66
2021/12/05 18:40:22;;;;;;;14.80;5.38;;;8.50;83.30;;;;;;5081339;28;20020;-66
2021/12/05 18:42:47;;;;;;;29.98;16.67;;;8.60;83.40;;;;;;5081976;28;20043;-66
2021/12/05 18:45:17;;;;;;;37.85;29.05;;;8.60;83.40;;;;;;5079692;28;20461;-67
2021/12/05 18:47:43;;;;;;;22.42;13.20;;;8.60;83.40;;;;;;5086728;28;20058;-65
2021/12/05 18:50:10;;;;;;;27.38;16.30;;;8.60;83.20;;;;;;5085424;28;20094;-66
2021/12/05 18:52:36;;;;;;;24.88;9.85;;;8.60;83.20;;;;;;5085864;28;20479;-66
2021/12/05 18:55:12;;;;;;;33.97;20.77;;;8.60;83.20;;;;;;5085965;28;20479;-66